sensor_id;sensor_type;location;lat;lon;timestamp;pressure;altitude;pressure_sealevel;temperature;humidity
22647;BME280;11490;42.726;23.268;2024-02-26T00:00:07;94785.91;;;7.88;100.00
22647;BME280;11490;42.726;23.268;2024-02-26T00:02:38;94771.97;;;7.81;100.00
22647;BME280;11490;42.726;23.268;2024-02-26T00:05:06;94757.84;;;7.69;100.00
22647;BME280;11490;42.726;23.268;2024-02-26T00:07:31;94763.75;;;7.94;100.00
22647;BME280;11490;42.726;23.268;2024-02-26T00:09:57;94771.69;;;8.18;100.00
22647;BME280;11490;42.726;23.268;2024-02-26T00:12:22;94796.41;;;8.18;100.00
22647;BME280;11490;42.726;23.268;2024-02-26T00:14:48;94743.22;;;7.78;100.00
22647;BME280;11490;42.726;23.268;2024-02-26T00:17:15;94782.91;;;8.20;100.00
22647;BME280;11490;42.726;23.268;2024-02-26T00:19:41;94754.41;;;8.03;100.00
22647;BME280;11490;42.726;23.268;2024-02-26T00:22:06;94782.22;;;7.89;100.00
22647;BME280;11490;42.726;23.268;2024-02-26T00:24:32;94747.59;;;7.61;100.00
22647;BME280;11490;42.726;23.268;2024-02-26T00:26:58;94754.16;;;7.70;100.00
22647;BME280;11490;42.726;23.268;2024-02-26T00:29:24;94721.38;;;7.29;100.00
22647;BME280;11490;42.726;23.268;2024-02-26T00:31:50;94771.59;;;7.89;100.00
22647;BME280;11490;42.726;23.268;2024-02-26T00:34:16;94731.91;;;7.71;100.00
22647;BME280;11490;42.726;23.268;2024-02-26T00:36:41;94753.59;;;7.68;100.00
22647;BME280;11490;42.726;23.268;2024-02-26T00:39:06;94749.56;;;7.42;100.00
22647;BME280;11490;42.726;23.268;2024-02-26T00:41:32;94751.06;;;7.50;100.00
22647;BME280;11490;42.726;23.268;2024-02-26T00:43:57;94740.22;;;7.63;100.00
22647;BME280;11490;42.726;23.268;2024-02-26T00:46:22;94713.22;;;7.66;100.00
22647;BME280;11490;42.726;23.268;2024-02-26T00:48:48;94738.03;;;7.71;100.00
22647;BME280;11490;42.726;23.268;2024-02-26T00:51:13;94740.22;;;7.63;100.00
22647;BME280;11490;42.726;23.268;2024-02-26T00:53:40;94733.97;;;7.69;100.00
22647;BME280;11490;42.726;23.268;2024-02-26T00:56:05;94733.53;;;7.72;100.00
22647;BME280;11490;42.726;23.268;2024-02-26T00:58:31;94747.59;;;7.84;100.00
22647;BME280;11490;42.726;23.268;2024-02-26T01:00:57;94714.34;;;7.70;100.00
22647;BME280;11490;42.726;23.268;2024-02-26T01:03:23;94717.69;;;7.77;100.00
22647;BME280;11490;42.726;23.268;2024-02-26T01:05:48;94694.97;;;7.81;100.00
22647;BME280;11490;42.726;23.268;2024-02-26T01:08:14;94705.06;;;8.07;100.00
22647;BME280;11490;42.726;23.268;2024-02-26T01:10:39;94741.28;;;8.37;100.00
22647;BME280;11490;42.726;23.268;2024-02-26T01:13:04;94730.19;;;8.40;100.00
22647;BME280;11490;42.726;23.268;2024-02-26T01:15:30;94738.47;;;8.55;100.00
22647;BME280;11490;42.726;23.268;2024-02-26T01:17:55;94714.28;;;8.17;100.00
22647;BME280;11490;42.726;23.268;2024-02-26T01:20:20;94729.75;;;8.43;100.00
22647;BME280;11490;42.726;23.268;2024-02-26T01:22:46;94716.53;;;8.48;100.00
22647;BME280;11490;42.726;23.268;2024-02-26T01:25:12;94702.03;;;8.27;100.00
22647;BME280;11490;42.726;23.268;2024-02-26T01:27:37;94719.97;;;8.60;100.00
22647;BME280;11490;42.726;23.268;2024-02-26T01:30:04;94706.44;;;8.62;100.00
22647;BME280;11490;42.726;23.268;2024-02-26T01:32:29;94713.44;;;8.39;100.00
22647;BME280;11490;42.726;23.268;2024-02-26T01:34:55;94691.63;;;8.26;100.00
22647;BME280;11490;42.726;23.268;2024-02-26T01:37:20;94702.22;;;8.49;100.00
22647;BME280;11490;42.726;23.268;2024-02-26T01:39:46;94725.94;;;8.67;100.00
22647;BME280;11490;42.726;23.268;2024-02-26T01:42:11;94711.59;;;8.40;100.00
22647;BME280;11490;42.726;23.268;2024-02-26T01:44:37;94684.94;;;8.35;100.00
22647;BME280;11490;42.726;23.268;2024-02-26T01:47:04;94683.84;;;8.47;100.00
22647;BME280;11490;42.726;23.268;2024-02-26T01:49:31;94718.25;;;8.54;100.00
22647;BME280;11490;42.726;23.268;2024-02-26T01:51:57;94707.97;;;8.58;100.00
22647;BME280;11490;42.726;23.268;2024-02-26T01:54:24;94700.00;;;8.58;100.00
22647;BME280;11490;42.726;23.268;2024-02-26T01:56:49;94716.09;;;8.51;100.00
22647;BME280;11490;42.726;23.268;2024-02-26T01:59:16;94655.38;;;7.80;100.00
22647;BME280;11490;42.726;23.268;2024-02-26T02:01:44;94725.59;;;8.35;100.00
22647;BME280;11490;42.726;23.268;2024-02-26T02:04:11;94689.13;;;8.19;100.00
22647;BME280;11490;42.726;23.268;2024-02-26T02:06:37;94676.81;;;8.30;100.00
22647;BME280;11490;42.726;23.268;2024-02-26T02:09:03;94697.09;;;8.59;100.00
22647;BME280;11490;42.726;23.268;2024-02-26T02:11:33;94696.91;;;8.49;100.00
22647;BME280;11490;42.726;23.268;2024-02-26T02:13:58;94717.13;;;8.50;100.00
22647;BME280;11490;42.726;23.268;2024-02-26T02:16:24;94700.44;;;8.15;100.00
22647;BME280;11490;42.726;23.268;2024-02-26T02:18:50;94696.38;;;8.24;100.00
22647;BME280;11490;42.726;23.268;2024-02-26T02:21:15;94664.72;;;7.70;100.00
22647;BME280;11490;42.726;23.268;2024-02-26T02:23:41;94709.94;;;8.10;100.00
22647;BME280;11490;42.726;23.268;2024-02-26T02:26:14;94702.63;;;8.06;100.00
22647;BME280;11490;42.726;23.268;2024-02-26T02:28:40;94708.16;;;8.28;100.00
22647;BME280;11490;42.726;23.268;2024-02-26T02:31:07;94686.16;;;7.92;100.00
22647;BME280;11490;42.726;23.268;2024-02-26T02:33:33;94697.81;;;7.91;100.00
22647;BME280;11490;42.726;23.268;2024-02-26T02:35:59;94692.47;;;8.15;100.00
22647;BME280;11490;42.726;23.268;2024-02-26T02:38:24;94669.84;;;8.12;100.00
22647;BME280;11490;42.726;23.268;2024-02-26T02:40:51;94649.00;;;7.92;100.00
22647;BME280;11490;42.726;23.268;2024-02-26T02:43:17;94674.53;;;8.22;100.00
22647;BME280;11490;42.726;23.268;2024-02-26T02:45:42;94680.75;;;8.39;100.00
22647;BME280;11490;42.726;23.268;2024-02-26T02:48:08;94708.41;;;8.66;100.00
22647;BME280;11490;42.726;23.268;2024-02-26T02:50:33;94695.66;;;8.68;100.00
22647;BME280;11490;42.726;23.268;2024-02-26T02:52:58;94695.53;;;8.75;100.00
22647;BME280;11490;42.726;23.268;2024-02-26T02:55:24;94711.34;;;8.81;100.00
22647;BME280;11490;42.726;23.268;2024-02-26T02:57:50;94703.63;;;8.68;100.00
22647;BME280;11490;42.726;23.268;2024-02-26T03:00:16;94691.28;;;8.62;100.00
22647;BME280;11490;42.726;23.268;2024-02-26T03:02:41;94699.03;;;8.64;100.00
22647;BME280;11490;42.726;23.268;2024-02-26T03:05:08;94695.22;;;8.60;100.00
22647;BME280;11490;42.726;23.268;2024-02-26T03:07:33;94686.34;;;8.54;100.00
22647;BME280;11490;42.726;23.268;2024-02-26T03:09:59;94706.16;;;8.75;100.00
22647;BME280;11490;42.726;23.268;2024-02-26T03:12:24;94713.06;;;8.59;100.00
22647;BME280;11490;42.726;23.268;2024-02-26T03:14:50;94691.78;;;8.19;100.00
22647;BME280;11490;42.726;23.268;2024-02-26T03:17:16;94682.06;;;8.13;100.00
22647;BME280;11490;42.726;23.268;2024-02-26T03:19:44;94713.00;;;8.31;100.00
22647;BME280;11490;42.726;23.268;2024-02-26T03:22:11;94676.81;;;8.30;100.00
22647;BME280;11490;42.726;23.268;2024-02-26T03:24:37;94689.56;;;8.28;100.00
22647;BME280;11490;42.726;23.268;2024-02-26T03:27:02;94713.22;;;8.29;100.00
22647;BME280;11490;42.726;23.268;2024-02-26T03:29:28;94664.56;;;8.00;100.00
22647;BME280;11490;42.726;23.268;2024-02-26T03:31:53;94697.66;;;8.33;100.00
22647;BME280;11490;42.726;23.268;2024-02-26T03:34:18;94688.88;;;8.21;100.00
22647;BME280;11490;42.726;23.268;2024-02-26T03:36:45;94691.59;;;8.49;100.00
22647;BME280;11490;42.726;23.268;2024-02-26T03:39:11;94657.56;;;8.34;100.00
22647;BME280;11490;42.726;23.268;2024-02-26T03:41:36;94659.50;;;8.39;100.00
22647;BME280;11490;42.726;23.268;2024-02-26T03:44:02;94679.03;;;8.61;100.00
22647;BME280;11490;42.726;23.268;2024-02-26T03:46:28;94691.94;;;8.69;100.00
22647;BME280;11490;42.726;23.268;2024-02-26T03:48:53;94684.56;;;8.43;100.00
22647;BME280;11490;42.726;23.268;2024-02-26T03:51:18;94657.41;;;8.29;100.00
22647;BME280;11490;42.726;23.268;2024-02-26T03:53:44;94678.97;;;8.56;100.00
22647;BME280;11490;42.726;23.268;2024-02-26T03:56:11;94695.34;;;8.65;100.00
22647;BME280;11490;42.726;23.268;2024-02-26T03:58:37;94661.25;;;8.33;100.00
22647;BME280;11490;42.726;23.268;2024-02-26T04:01:02;94687.09;;;8.38;100.00
22647;BME280;11490;42.726;23.268;2024-02-26T04:03:28;94682.56;;;8.50;100.00
22647;BME280;11490;42.726;23.268;2024-02-26T04:05:53;94660.34;;;8.56;100.00
22647;BME280;11490;42.726;23.268;2024-02-26T04:08:19;94655.34;;;8.43;100.00
22647;BME280;11490;42.726;23.268;2024-02-26T04:10:44;94668.56;;;8.55;100.00
22647;BME280;11490;42.726;23.268;2024-02-26T04:13:09;94665.53;;;8.63;100.00
22647;BME280;11490;42.726;23.268;2024-02-26T04:15:35;94677.63;;;8.70;100.00
22647;BME280;11490;42.726;23.268;2024-02-26T04:18:00;94674.44;;;8.28;100.00
22647;BME280;11490;42.726;23.268;2024-02-26T04:20:26;94590.09;;;7.55;100.00
22647;BME280;11490;42.726;23.268;2024-02-26T04:22:51;94667.63;;;8.21;100.00
22647;BME280;11490;42.726;23.268;2024-02-26T04:25:16;94634.00;;;8.26;100.00
22647;BME280;11490;42.726;23.268;2024-02-26T04:27:42;94654.84;;;8.46;100.00
22647;BME280;11490;42.726;23.268;2024-02-26T04:30:08;94668.25;;;8.51;100.00
22647;BME280;11490;42.726;23.268;2024-02-26T04:32:33;94685.41;;;8.32;100.00
22647;BME280;11490;42.726;23.268;2024-02-26T04:35:00;94620.00;;;8.02;100.00
22647;BME280;11490;42.726;23.268;2024-02-26T04:37:25;94670.78;;;8.46;100.00
22647;BME280;11490;42.726;23.268;2024-02-26T04:39:59;94651.44;;;8.34;100.00
22647;BME280;11490;42.726;23.268;2024-02-26T04:42:25;94645.31;;;8.33;100.00
22647;BME280;11490;42.726;23.268;2024-02-26T04:44:50;94664.63;;;8.17;100.00
22647;BME280;11490;42.726;23.268;2024-02-26T04:47:16;94673.28;;;8.24;100.00
22647;BME280;11490;42.726;23.268;2024-02-26T04:49:41;94653.78;;;8.19;100.00
22647;BME280;11490;42.726;23.268;2024-02-26T04:52:06;94680.97;;;8.49;100.00
22647;BME280;11490;42.726;23.268;2024-02-26T04:54:32;94669.75;;;8.47;100.00
22647;BME280;11490;42.726;23.268;2024-02-26T04:56:57;94681.41;;;8.46;100.00
22647;BME280;11490;42.726;23.268;2024-02-26T04:59:23;94679.91;;;8.50;100.00
22647;BME280;11490;42.726;23.268;2024-02-26T05:01:48;94673.75;;;8.33;100.00
22647;BME280;11490;42.726;23.268;2024-02-26T05:04:14;94700.94;;;8.52;100.00
22647;BME280;11490;42.726;23.268;2024-02-26T05:06:39;94683.03;;;8.47;100.00
22647;BME280;11490;42.726;23.268;2024-02-26T05:09:05;94710.78;;;8.68;100.00
22647;BME280;11490;42.726;23.268;2024-02-26T05:11:30;94706.78;;;8.65;100.00
22647;BME280;11490;42.726;23.268;2024-02-26T05:13:57;94666.44;;;8.40;100.00
22647;BME280;11490;42.726;23.268;2024-02-26T05:16:22;94716.09;;;8.51;100.00
22647;BME280;11490;42.726;23.268;2024-02-26T05:18:50;94694.47;;;8.47;100.00
22647;BME280;11490;42.726;23.268;2024-02-26T05:21:15;94702.69;;;8.46;100.00
22647;BME280;11490;42.726;23.268;2024-02-26T05:23:40;94710.06;;;8.44;100.00
22647;BME280;11490;42.726;23.268;2024-02-26T05:26:09;94704.25;;;8.19;100.00
22647;BME280;11490;42.726;23.268;2024-02-26T05:28:34;94691.19;;;7.65;100.00
22647;BME280;11490;42.726;23.268;2024-02-26T05:31:00;94728.38;;;8.17;100.00
22647;BME280;11490;42.726;23.268;2024-02-26T05:33:25;94724.00;;;7.99;100.00
22647;BME280;11490;42.726;23.268;2024-02-26T05:35:51;94754.22;;;8.22;100.00
22647;BME280;11490;42.726;23.268;2024-02-26T05:38:16;94704.75;;;8.04;100.00
22647;BME280;11490;42.726;23.268;2024-02-26T05:40:41;94735.91;;;8.08;100.00
22647;BME280;11490;42.726;23.268;2024-02-26T05:43:07;94750.00;;;8.09;100.00
22647;BME280;11490;42.726;23.268;2024-02-26T05:45:32;94742.72;;;8.04;100.00
22647;BME280;11490;42.726;23.268;2024-02-26T05:47:58;94741.19;;;8.32;100.00
22647;BME280;11490;42.726;23.268;2024-02-26T05:50:23;94730.69;;;8.25;100.00
22647;BME280;11490;42.726;23.268;2024-02-26T05:52:49;94730.19;;;8.40;100.00
22647;BME280;11490;42.726;23.268;2024-02-26T05:55:14;94732.41;;;8.43;100.00
22647;BME280;11490;42.726;23.268;2024-02-26T05:57:40;94740.25;;;8.38;100.00
22647;BME280;11490;42.726;23.268;2024-02-26T06:00:06;94726.28;;;8.31;100.00
22647;BME280;11490;42.726;23.268;2024-02-26T06:02:32;94728.94;;;8.42;100.00
22647;BME280;11490;42.726;23.268;2024-02-26T06:04:57;94752.72;;;8.37;100.00
22647;BME280;11490;42.726;23.268;2024-02-26T06:07:23;94734.78;;;8.56;100.00
22647;BME280;11490;42.726;23.268;2024-02-26T06:09:48;94740.69;;;8.46;100.00
22647;BME280;11490;42.726;23.268;2024-02-26T06:12:13;94766.75;;;8.61;100.00
22647;BME280;11490;42.726;23.268;2024-02-26T06:14:39;94747.56;;;8.31;100.00
22647;BME280;11490;42.726;23.268;2024-02-26T06:17:04;94719.50;;;8.11;100.00
22647;BME280;11490;42.726;23.268;2024-02-26T06:19:30;94737.38;;;8.28;100.00
22647;BME280;11490;42.726;23.268;2024-02-26T06:21:55;94734.16;;;8.26;100.00
22647;BME280;11490;42.726;23.268;2024-02-26T06:24:20;94746.25;;;8.22;100.00
22647;BME280;11490;42.726;23.268;2024-02-26T06:26:47;94745.69;;;8.43;100.00
22647;BME280;11490;42.726;23.268;2024-02-26T06:29:13;94759.34;;;8.75;100.00
22647;BME280;11490;42.726;23.268;2024-02-26T06:31:38;94749.47;;;8.75;100.00
22647;BME280;11490;42.726;23.268;2024-02-26T06:34:04;94735.16;;;8.76;100.00
22647;BME280;11490;42.726;23.268;2024-02-26T06:36:29;94744.31;;;8.69;100.00
22647;BME280;11490;42.726;23.268;2024-02-26T06:38:57;94732.13;;;8.44;100.00
22647;BME280;11490;42.726;23.268;2024-02-26T06:41:22;94779.50;;;8.59;100.00
22647;BME280;11490;42.726;23.268;2024-02-26T06:43:55;94758.41;;;8.69;100.00
22647;BME280;11490;42.726;23.268;2024-02-26T06:46:21;94770.34;;;8.95;100.00
22647;BME280;11490;42.726;23.268;2024-02-26T06:48:48;94764.88;;;9.02;100.00
22647;BME280;11490;42.726;23.268;2024-02-26T06:51:13;94750.53;;;9.03;100.00
22647;BME280;11490;42.726;23.268;2024-02-26T06:53:39;94717.19;;;8.83;100.00
22647;BME280;11490;42.726;23.268;2024-02-26T06:56:13;94790.56;;;9.24;100.00
22647;BME280;11490;42.726;23.268;2024-02-26T06:58:38;94767.00;;;9.16;100.00
22647;BME280;11490;42.726;23.268;2024-02-26T07:01:04;94788.31;;;9.33;100.00
22647;BME280;11490;42.726;23.268;2024-02-26T07:03:29;94783.00;;;9.33;100.00
22647;BME280;11490;42.726;23.268;2024-02-26T07:05:58;94724.91;;;8.97;100.00
22647;BME280;11490;42.726;23.268;2024-02-26T07:08:23;94740.84;;;8.97;100.00
22647;BME280;11490;42.726;23.268;2024-02-26T07:10:51;94740.72;;;9.03;100.00
22647;BME280;11490;42.726;23.268;2024-02-26T07:13:16;94788.31;;;9.33;100.00
22647;BME280;11490;42.726;23.268;2024-02-26T07:15:42;94754.13;;;9.25;100.00
22647;BME280;11490;42.726;23.268;2024-02-26T07:18:07;94772.28;;;9.28;100.00
22647;BME280;11490;42.726;23.268;2024-02-26T07:20:33;94731.53;;;9.11;100.00
22647;BME280;11490;42.726;23.268;2024-02-26T07:22:58;94764.28;;;9.28;100.00
22647;BME280;11490;42.726;23.268;2024-02-26T07:25:26;94763.78;;;9.31;100.00
22647;BME280;11490;42.726;23.268;2024-02-26T07:27:52;94703.03;;;8.95;100.00
22647;BME280;11490;42.726;23.268;2024-02-26T07:30:17;94799.81;;;9.50;100.00
22647;BME280;11490;42.726;23.268;2024-02-26T07:32:46;94796.91;;;9.52;100.00
22647;BME280;11490;42.726;23.268;2024-02-26T07:35:11;94786.38;;;9.45;100.00
22647;BME280;11490;42.726;23.268;2024-02-26T07:37:36;94784.47;;;9.57;100.00
22647;BME280;11490;42.726;23.268;2024-02-26T07:40:23;94723.47;;;9.22;100.00
22647;BME280;11490;42.726;23.268;2024-02-26T07:42:59;94738.97;;;9.25;100.00
22647;BME280;11490;42.726;23.268;2024-02-26T07:45:24;94761.88;;;9.43;100.00
22647;BME280;11490;42.726;23.268;2024-02-26T07:47:49;94781.31;;;9.60;100.00
22647;BME280;11490;42.726;23.268;2024-02-26T07:50:19;94778.50;;;9.67;100.00
22647;BME280;11490;42.726;23.268;2024-02-26T07:52:47;94773.81;;;9.74;100.00
22647;BME280;11490;42.726;23.268;2024-02-26T07:55:12;94766.72;;;9.80;100.00
22647;BME280;11490;42.726;23.268;2024-02-26T07:57:42;94790.91;;;9.61;100.00
22647;BME280;11490;42.726;23.268;2024-02-26T08:00:08;94761.22;;;9.53;100.00
22647;BME280;11490;42.726;23.268;2024-02-26T08:02:34;94779.78;;;9.81;100.00
22647;BME280;11490;42.726;23.268;2024-02-26T08:04:59;94775.75;;;9.79;100.00
22647;BME280;11490;42.726;23.268;2024-02-26T08:07:25;94747.38;;;9.68;100.00
22647;BME280;11490;42.726;23.268;2024-02-26T08:09:50;94791.78;;;9.84;100.00
22647;BME280;11490;42.726;23.268;2024-02-26T08:12:16;94788.94;;;9.23;100.00
22647;BME280;11490;42.726;23.268;2024-02-26T08:14:44;94731.13;;;9.52;100.00
22647;BME280;11490;42.726;23.268;2024-02-26T08:17:10;94768.00;;;9.77;100.00
22647;BME280;11490;42.726;23.268;2024-02-26T08:19:35;94773.81;;;9.91;100.00
22647;BME280;11490;42.726;23.268;2024-02-26T08:22:01;94748.28;;;9.95;100.00
22647;BME280;11490;42.726;23.268;2024-02-26T08:24:27;94755.94;;;10.08;100.00
22647;BME280;11490;42.726;23.268;2024-02-26T08:26:52;94770.25;;;10.02;100.00
22647;BME280;11490;42.726;23.268;2024-02-26T08:29:18;94756.81;;;10.14;100.00
22647;BME280;11490;42.726;23.268;2024-02-26T08:31:43;94776.53;;;10.13;100.00
22647;BME280;11490;42.726;23.268;2024-02-26T08:34:09;94755.88;;;9.86;100.00
22647;BME280;11490;42.726;23.268;2024-02-26T08:36:34;94726.06;;;9.68;100.00
22647;BME280;11490;42.726;23.268;2024-02-26T08:39:00;94771.50;;;10.16;100.00
22647;BME280;11490;42.726;23.268;2024-02-26T08:41:25;94768.63;;;10.01;100.00
22647;BME280;11490;42.726;23.268;2024-02-26T08:43:51;94721.38;;;9.75;100.00
22647;BME280;11490;42.726;23.268;2024-02-26T08:46:16;94761.19;;;10.20;100.00
22647;BME280;11490;42.726;23.268;2024-02-26T08:48:42;94778.25;;;10.62;100.00
22647;BME280;11490;42.726;23.268;2024-02-26T08:51:08;94783.53;;;10.79;100.00
22647;BME280;11490;42.726;23.268;2024-02-26T08:53:35;94751.47;;;10.74;100.00
22647;BME280;11490;42.726;23.268;2024-02-26T08:56:00;94777.31;;;10.95;100.00
22647;BME280;11490;42.726;23.268;2024-02-26T08:58:27;94733.97;;;10.83;100.00
22647;BME280;11490;42.726;23.268;2024-02-26T09:00:53;94763.84;;;10.85;100.00
22647;BME280;11490;42.726;23.268;2024-02-26T09:03:18;94750.59;;;10.90;100.00
22647;BME280;11490;42.726;23.268;2024-02-26T09:05:44;94740.41;;;10.87;100.00
22647;BME280;11490;42.726;23.268;2024-02-26T09:08:09;94752.53;;;11.00;100.00
22647;BME280;11490;42.726;23.268;2024-02-26T09:10:34;94749.28;;;11.19;100.00
22647;BME280;11490;42.726;23.268;2024-02-26T09:13:00;94749.94;;;11.32;100.00
22647;BME280;11490;42.726;23.268;2024-02-26T09:15:25;94734.97;;;11.31;100.00
22647;BME280;11490;42.726;23.268;2024-02-26T09:17:50;94766.09;;;11.47;100.00
22647;BME280;11490;42.726;23.268;2024-02-26T09:20:17;94751.53;;;11.33;100.00
22647;BME280;11490;42.726;23.268;2024-02-26T09:22:46;94734.97;;;11.31;100.00
22647;BME280;11490;42.726;23.268;2024-02-26T09:25:11;94721.41;;;11.05;100.00
22647;BME280;11490;42.726;23.268;2024-02-26T09:27:36;94729.00;;;11.50;100.00
22647;BME280;11490;42.726;23.268;2024-02-26T09:30:02;94757.97;;;11.95;100.00
22647;BME280;11490;42.726;23.268;2024-02-26T09:32:28;94748.88;;;11.97;100.00
22647;BME280;11490;42.726;23.268;2024-02-26T09:34:53;94766.00;;;12.01;100.00
22647;BME280;11490;42.726;23.268;2024-02-26T09:37:18;94713.59;;;11.94;100.00
22647;BME280;11490;42.726;23.268;2024-02-26T09:39:44;94725.41;;;12.04;100.00
22647;BME280;11490;42.726;23.268;2024-02-26T09:42:11;94724.03;;;12.48;99.65
22647;BME280;11490;42.726;23.268;2024-02-26T09:44:40;94733.13;;;12.47;98.12
22647;BME280;11490;42.726;23.268;2024-02-26T09:47:09;94749.47;;;12.51;97.74
22647;BME280;11490;42.726;23.268;2024-02-26T09:49:36;94737.50;;;12.73;98.32
22647;BME280;11490;42.726;23.268;2024-02-26T09:52:03;94738.06;;;12.81;96.04
22647;BME280;11490;42.726;23.268;2024-02-26T09:54:29;94724.69;;;12.86;96.62
22647;BME280;11490;42.726;23.268;2024-02-26T09:56:59;94715.09;;;12.85;92.34
22647;BME280;11490;42.726;23.268;2024-02-26T09:59:27;94752.59;;;13.10;90.88
22647;BME280;11490;42.726;23.268;2024-02-26T10:01:53;94741.91;;;13.05;90.26
22647;BME280;11490;42.726;23.268;2024-02-26T10:04:20;94717.78;;;13.00;90.76
22647;BME280;11490;42.726;23.268;2024-02-26T10:06:46;94717.31;;;13.18;90.57
22647;BME280;11490;42.726;23.268;2024-02-26T10:09:12;94724.75;;;13.11;88.47
22647;BME280;11490;42.726;23.268;2024-02-26T10:11:37;94732.53;;;13.13;89.09
22647;BME280;11490;42.726;23.268;2024-02-26T10:14:03;94671.72;;;12.83;89.20
22647;BME280;11490;42.726;23.268;2024-02-26T10:16:29;94718.78;;;12.79;88.30
22647;BME280;11490;42.726;23.268;2024-02-26T10:18:55;94690.97;;;12.75;88.54
22647;BME280;11490;42.726;23.268;2024-02-26T10:21:21;94711.38;;;13.11;88.85
22647;BME280;11490;42.726;23.268;2024-02-26T10:23:47;94729.13;;;13.22;87.73
22647;BME280;11490;42.726;23.268;2024-02-26T10:26:13;94715.47;;;13.24;87.58
22647;BME280;11490;42.726;23.268;2024-02-26T10:28:41;94726.72;;;13.41;87.58
22647;BME280;11490;42.726;23.268;2024-02-26T10:31:08;94731.25;;;13.40;86.09
22647;BME280;11490;42.726;23.268;2024-02-26T10:33:35;94722.69;;;13.48;86.51
22647;BME280;11490;42.726;23.268;2024-02-26T10:36:02;94675.28;;;13.39;86.14
22647;BME280;11490;42.726;23.268;2024-02-26T10:42:19;94693.75;;;13.51;84.43
22647;BME280;11490;42.726;23.268;2024-02-26T10:44:45;94671.81;;;13.43;84.72
22647;BME280;11490;42.726;23.268;2024-02-26T10:47:14;94691.09;;;13.45;84.54
22647;BME280;11490;42.726;23.268;2024-02-26T10:49:45;94665.38;;;13.49;83.86
22647;BME280;11490;42.726;23.268;2024-02-26T10:52:11;94699.91;;;13.71;83.04
22647;BME280;11490;42.726;23.268;2024-02-26T10:54:39;94644.75;;;13.50;83.13
22647;BME280;11490;42.726;23.268;2024-02-26T10:57:06;94651.41;;;13.63;83.42
22647;BME280;11490;42.726;23.268;2024-02-26T10:59:34;94675.00;;;13.71;82.32
22647;BME280;11490;42.726;23.268;2024-02-26T11:02:00;94673.41;;;13.55;83.04
22647;BME280;11490;42.726;23.268;2024-02-26T11:04:26;94690.00;;;13.72;82.03
22647;BME280;11490;42.726;23.268;2024-02-26T11:06:57;94663.78;;;13.54;82.59
22647;BME280;11490;42.726;23.268;2024-02-26T11:09:23;94694.84;;;13.75;82.08
22647;BME280;11490;42.726;23.268;2024-02-26T11:11:50;94639.13;;;13.46;82.00
22647;BME280;11490;42.726;23.268;2024-02-26T11:14:20;94652.00;;;13.55;81.80
22647;BME280;11490;42.726;23.268;2024-02-26T11:16:47;94671.81;;;13.54;82.36
22647;BME280;11490;42.726;23.268;2024-02-26T11:19:13;94655.19;;;13.57;81.96
22647;BME280;11490;42.726;23.268;2024-02-26T11:21:39;94673.38;;;13.85;82.32
22647;BME280;11490;42.726;23.268;2024-02-26T11:24:15;94689.47;;;13.85;80.19
22647;BME280;11490;42.726;23.268;2024-02-26T11:26:53;94637.78;;;13.49;80.16
22647;BME280;11490;42.726;23.268;2024-02-26T11:29:29;94679.28;;;13.82;81.09
22647;BME280;11490;42.726;23.268;2024-02-26T11:31:59;94646.63;;;13.44;81.19
22647;BME280;11490;42.726;23.268;2024-02-26T11:34:25;94639.38;;;13.50;81.12
22647;BME280;11490;42.726;23.268;2024-02-26T11:36:51;94646.63;;;13.55;79.87
22647;BME280;11490;42.726;23.268;2024-02-26T11:39:16;94634.31;;;13.54;79.84
22647;BME280;11490;42.726;23.268;2024-02-26T11:41:42;94643.38;;;13.68;80.09
22647;BME280;11490;42.726;23.268;2024-02-26T11:44:08;94647.66;;;13.84;79.63
22647;BME280;11490;42.726;23.268;2024-02-26T11:46:39;94656.19;;;14.01;79.45
22647;BME280;11490;42.726;23.268;2024-02-26T11:51:56;94634.75;;;13.96;78.81
22647;BME280;11490;42.726;23.268;2024-02-26T11:57:39;94664.72;;;14.13;78.34
22647;BME280;11490;42.726;23.268;2024-02-26T12:00:13;94638.53;;;13.80;78.79
22647;BME280;11490;42.726;23.268;2024-02-26T12:02:59;94621.34;;;13.86;79.00
22647;BME280;11490;42.726;23.268;2024-02-26T12:05:33;94640.66;;;13.88;79.01
22647;BME280;11490;42.726;23.268;2024-02-26T12:08:01;94633.16;;;13.80;79.39
22647;BME280;11490;42.726;23.268;2024-02-26T12:10:36;94650.84;;;13.91;79.59
22647;BME280;11490;42.726;23.268;2024-02-26T12:13:11;94620.28;;;13.92;78.52
22647;BME280;11490;42.726;23.268;2024-02-26T12:15:42;94619.78;;;13.85;77.75
22647;BME280;11490;42.726;23.268;2024-02-26T12:18:08;94652.94;;;14.14;78.18
22647;BME280;11490;42.726;23.268;2024-02-26T12:20:36;94648.34;;;14.20;78.00
22647;BME280;11490;42.726;23.268;2024-02-26T12:23:03;94655.81;;;14.38;77.59
22647;BME280;11490;42.726;23.268;2024-02-26T12:25:30;94635.16;;;14.39;77.35
22647;BME280;11490;42.726;23.268;2024-02-26T12:27:57;94670.28;;;14.42;76.38
22647;BME280;11490;42.726;23.268;2024-02-26T12:30:23;94633.31;;;14.19;77.50
22647;BME280;11490;42.726;23.268;2024-02-26T12:32:50;94651.53;;;14.32;76.95
22647;BME280;11490;42.726;23.268;2024-02-26T12:35:16;94623.44;;;14.14;74.55
22647;BME280;11490;42.726;23.268;2024-02-26T12:37:43;94655.53;;;14.45;74.95
22647;BME280;11490;42.726;23.268;2024-02-26T12:40:09;94638.34;;;14.41;75.05
22647;BME280;11490;42.726;23.268;2024-02-26T12:42:35;94684.88;;;14.80;74.55
22647;BME280;11490;42.726;23.268;2024-02-26T12:45:08;94629.69;;;14.59;73.41
22647;BME280;11490;42.726;23.268;2024-02-26T12:47:38;94645.88;;;14.44;72.49
22647;BME280;11490;42.726;23.268;2024-02-26T12:50:05;94638.88;;;14.48;71.43
22647;BME280;11490;42.726;23.268;2024-02-26T12:52:35;94652.81;;;14.55;71.95
22647;BME280;11490;42.726;23.268;2024-02-26T12:55:04;94649.09;;;14.46;73.13